sensor_id;sensor_type;location;lat;lon;timestamp;P1;durP1;ratioP1;P2;durP2;ratioP2
10126;SDS011;13080;42.608;23.362;2024-02-16T00:01:00;5.68;;;3.50;;
10126;SDS011;13080;42.608;23.362;2024-02-16T00:03:27;5.97;;;3.33;;
10126;SDS011;13080;42.608;23.362;2024-02-16T00:05:54;4.07;;;3.00;;
10126;SDS011;13080;42.608;23.362;2024-02-16T00:08:21;4.97;;;3.10;;
10126;SDS011;13080;42.608;23.362;2024-02-16T00:10:48;4.28;;;2.80;;
10126;SDS011;13080;42.608;23.362;2024-02-16T00:13:14;3.92;;;2.58;;
10126;SDS011;13080;42.608;23.362;2024-02-16T00:15:43;5.45;;;3.03;;
10126;SDS011;13080;42.608;23.362;2024-02-16T00:18:10;6.03;;;3.17;;
10126;SDS011;13080;42.608;23.362;2024-02-16T00:20:37;6.47;;;3.00;;
10126;SDS011;13080;42.608;23.362;2024-02-16T00:23:04;5.78;;;3.20;;
10126;SDS011;13080;42.608;23.362;2024-02-16T00:25:32;5.63;;;3.42;;
10126;SDS011;13080;42.608;23.362;2024-02-16T00:27:58;5.38;;;3.65;;
10126;SDS011;13080;42.608;23.362;2024-02-16T00:30:25;5.28;;;2.92;;
10126;SDS011;13080;42.608;23.362;2024-02-16T00:32:54;3.25;;;2.22;;
10126;SDS011;13080;42.608;23.362;2024-02-16T00:35:21;4.10;;;2.78;;
10126;SDS011;13080;42.608;23.362;2024-02-16T00:37:48;5.55;;;2.88;;
10126;SDS011;13080;42.608;23.362;2024-02-16T00:40:15;4.32;;;2.45;;
10126;SDS011;13080;42.608;23.362;2024-02-16T00:42:42;6.38;;;3.40;;
10126;SDS011;13080;42.608;23.362;2024-02-16T00:45:09;3.90;;;2.22;;
10126;SDS011;13080;42.608;23.362;2024-02-16T00:47:36;4.40;;;2.55;;
10126;SDS011;13080;42.608;23.362;2024-02-16T00:50:06;3.30;;;2.60;;
10126;SDS011;13080;42.608;23.362;2024-02-16T00:52:35;6.60;;;3.15;;
10126;SDS011;13080;42.608;23.362;2024-02-16T00:55:02;4.85;;;2.90;;
10126;SDS011;13080;42.608;23.362;2024-02-16T00:57:30;6.20;;;3.45;;
10126;SDS011;13080;42.608;23.362;2024-02-16T00:59:58;4.95;;;3.72;;
10126;SDS011;13080;42.608;23.362;2024-02-16T01:02:25;4.07;;;2.92;;
10126;SDS011;13080;42.608;23.362;2024-02-16T01:04:52;6.70;;;5.47;;
10126;SDS011;13080;42.608;23.362;2024-02-16T01:07:24;6.93;;;3.92;;
10126;SDS011;13080;42.608;23.362;2024-02-16T01:09:51;4.10;;;3.10;;
10126;SDS011;13080;42.608;23.362;2024-02-16T01:12:18;8.90;;;7.93;;
10126;SDS011;13080;42.608;23.362;2024-02-16T01:14:45;5.97;;;3.45;;
10126;SDS011;13080;42.608;23.362;2024-02-16T01:17:12;4.57;;;3.30;;
10126;SDS011;13080;42.608;23.362;2024-02-16T01:19:38;5.18;;;2.97;;
10126;SDS011;13080;42.608;23.362;2024-02-16T01:22:05;6.75;;;3.08;;
10126;SDS011;13080;42.608;23.362;2024-02-16T01:24:34;6.55;;;2.75;;
10126;SDS011;13080;42.608;23.362;2024-02-16T01:27:00;3.53;;;2.70;;
10126;SDS011;13080;42.608;23.362;2024-02-16T01:29:27;5.28;;;3.10;;
10126;SDS011;13080;42.608;23.362;2024-02-16T01:31:54;6.25;;;3.13;;
10126;SDS011;13080;42.608;23.362;2024-02-16T01:34:21;3.75;;;3.13;;
10126;SDS011;13080;42.608;23.362;2024-02-16T01:36:48;4.65;;;3.08;;
10126;SDS011;13080;42.608;23.362;2024-02-16T01:39:15;3.00;;;2.60;;
10126;SDS011;13080;42.608;23.362;2024-02-16T01:41:43;3.83;;;2.83;;
10126;SDS011;13080;42.608;23.362;2024-02-16T01:44:10;6.93;;;2.30;;
10126;SDS011;13080;42.608;23.362;2024-02-16T01:46:37;4.50;;;2.80;;
10126;SDS011;13080;42.608;23.362;2024-02-16T01:49:04;5.35;;;2.58;;
10126;SDS011;13080;42.608;23.362;2024-02-16T01:51:33;6.47;;;2.70;;
10126;SDS011;13080;42.608;23.362;2024-02-16T01:54:02;3.90;;;2.65;;
10126;SDS011;13080;42.608;23.362;2024-02-16T01:56:29;5.18;;;2.80;;
10126;SDS011;13080;42.608;23.362;2024-02-16T01:58:58;6.43;;;3.63;;
10126;SDS011;13080;42.608;23.362;2024-02-16T02:01:25;7.45;;;4.18;;
10126;SDS011;13080;42.608;23.362;2024-02-16T02:03:51;7.75;;;3.30;;
10126;SDS011;13080;42.608;23.362;2024-02-16T02:06:18;5.30;;;3.70;;
10126;SDS011;13080;42.608;23.362;2024-02-16T02:08:46;4.22;;;3.17;;
10126;SDS011;13080;42.608;23.362;2024-02-16T02:11:13;4.38;;;3.40;;
10126;SDS011;13080;42.608;23.362;2024-02-16T02:13:40;5.20;;;2.83;;
10126;SDS011;13080;42.608;23.362;2024-02-16T02:16:08;3.88;;;2.75;;
10126;SDS011;13080;42.608;23.362;2024-02-16T02:18:37;4.93;;;3.25;;
10126;SDS011;13080;42.608;23.362;2024-02-16T02:21:04;4.15;;;3.28;;
10126;SDS011;13080;42.608;23.362;2024-02-16T02:23:32;4.22;;;2.85;;
10126;SDS011;13080;42.608;23.362;2024-02-16T02:25:59;4.97;;;3.40;;
10126;SDS011;13080;42.608;23.362;2024-02-16T02:28:26;4.30;;;3.08;;
10126;SDS011;13080;42.608;23.362;2024-02-16T02:30:54;9.48;;;3.80;;
10126;SDS011;13080;42.608;23.362;2024-02-16T02:33:21;9.68;;;8.55;;
10126;SDS011;13080;42.608;23.362;2024-02-16T02:35:47;8.70;;;7.80;;
10126;SDS011;13080;42.608;23.362;2024-02-16T02:38:13;7.97;;;5.90;;
10126;SDS011;13080;42.608;23.362;2024-02-16T02:40:42;6.45;;;4.63;;
10126;SDS011;13080;42.608;23.362;2024-02-16T02:43:09;5.70;;;3.95;;
10126;SDS011;13080;42.608;23.362;2024-02-16T02:45:36;6.32;;;3.20;;
10126;SDS011;13080;42.608;23.362;2024-02-16T02:48:02;5.47;;;3.28;;
10126;SDS011;13080;42.608;23.362;2024-02-16T02:50:30;5.32;;;3.05;;
10126;SDS011;13080;42.608;23.362;2024-02-16T02:52:57;4.70;;;2.95;;
10126;SDS011;13080;42.608;23.362;2024-02-16T02:55:24;8.52;;;3.28;;
10126;SDS011;13080;42.608;23.362;2024-02-16T02:57:52;4.15;;;2.67;;
10126;SDS011;13080;42.608;23.362;2024-02-16T03:00:19;7.28;;;4.25;;
10126;SDS011;13080;42.608;23.362;2024-02-16T03:02:46;4.72;;;3.35;;
10126;SDS011;13080;42.608;23.362;2024-02-16T03:05:13;4.32;;;3.13;;
10126;SDS011;13080;42.608;23.362;2024-02-16T03:07:40;5.45;;;3.00;;
10126;SDS011;13080;42.608;23.362;2024-02-16T03:10:08;3.80;;;2.80;;
10126;SDS011;13080;42.608;23.362;2024-02-16T03:12:35;4.75;;;3.05;;
10126;SDS011;13080;42.608;23.362;2024-02-16T03:15:04;4.18;;;2.80;;
10126;SDS011;13080;42.608;23.362;2024-02-16T03:17:32;4.90;;;2.45;;
10126;SDS011;13080;42.608;23.362;2024-02-16T03:19:59;3.25;;;2.50;;
10126;SDS011;13080;42.608;23.362;2024-02-16T03:22:26;5.47;;;2.30;;
10126;SDS011;13080;42.608;23.362;2024-02-16T03:24:52;3.97;;;2.40;;
10126;SDS011;13080;42.608;23.362;2024-02-16T03:27:19;5.38;;;2.60;;
10126;SDS011;13080;42.608;23.362;2024-02-16T03:29:46;4.18;;;2.72;;
10126;SDS011;13080;42.608;23.362;2024-02-16T03:32:15;2.92;;;1.70;;
10126;SDS011;13080;42.608;23.362;2024-02-16T03:34:42;3.13;;;2.10;;
10126;SDS011;13080;42.608;23.362;2024-02-16T03:37:09;2.78;;;2.05;;
10126;SDS011;13080;42.608;23.362;2024-02-16T03:39:36;4.07;;;2.03;;
10126;SDS011;13080;42.608;23.362;2024-02-16T03:42:03;4.68;;;2.95;;
10126;SDS011;13080;42.608;23.362;2024-02-16T03:44:30;5.38;;;3.33;;
10126;SDS011;13080;42.608;23.362;2024-02-16T03:46:57;5.63;;;3.08;;
10126;SDS011;13080;42.608;23.362;2024-02-16T03:49:26;5.15;;;2.70;;
10126;SDS011;13080;42.608;23.362;2024-02-16T03:51:53;3.45;;;1.98;;
10126;SDS011;13080;42.608;23.362;2024-02-16T03:54:20;2.70;;;2.10;;
10126;SDS011;13080;42.608;23.362;2024-02-16T03:56:46;3.90;;;2.30;;
10126;SDS011;13080;42.608;23.362;2024-02-16T03:59:13;20.55;;;10.52;;
10126;SDS011;13080;42.608;23.362;2024-02-16T04:01:40;3.38;;;3.00;;
10126;SDS011;13080;42.608;23.362;2024-02-16T04:04:07;4.10;;;2.45;;
10126;SDS011;13080;42.608;23.362;2024-02-16T04:06:36;3.15;;;2.40;;
10126;SDS011;13080;42.608;23.362;2024-02-16T04:09:02;4.45;;;2.45;;
10126;SDS011;13080;42.608;23.362;2024-02-16T04:11:31;4.15;;;3.00;;
10126;SDS011;13080;42.608;23.362;2024-02-16T04:13:58;4.20;;;2.33;;
10126;SDS011;13080;42.608;23.362;2024-02-16T04:16:25;5.43;;;2.20;;
10126;SDS011;13080;42.608;23.362;2024-02-16T04:18:52;3.78;;;3.03;;
10126;SDS011;13080;42.608;23.362;2024-02-16T04:21:19;3.38;;;2.63;;
10126;SDS011;13080;42.608;23.362;2024-02-16T04:23:48;3.55;;;2.63;;
10126;SDS011;13080;42.608;23.362;2024-02-16T04:26:15;3.20;;;2.42;;
10126;SDS011;13080;42.608;23.362;2024-02-16T04:28:42;3.80;;;2.65;;
10126;SDS011;13080;42.608;23.362;2024-02-16T04:31:09;3.97;;;2.67;;
10126;SDS011;13080;42.608;23.362;2024-02-16T04:33:36;4.18;;;2.17;;
10126;SDS011;13080;42.608;23.362;2024-02-16T04:36:05;4.43;;;3.00;;
10126;SDS011;13080;42.608;23.362;2024-02-16T04:38:33;3.70;;;3.00;;
10126;SDS011;13080;42.608;23.362;2024-02-16T04:41:04;4.32;;;3.05;;
10126;SDS011;13080;42.608;23.362;2024-02-16T04:43:31;4.40;;;3.25;;
10126;SDS011;13080;42.608;23.362;2024-02-16T04:45:58;2.92;;;2.38;;
10126;SDS011;13080;42.608;23.362;2024-02-16T04:48:25;3.75;;;2.13;;
10126;SDS011;13080;42.608;23.362;2024-02-16T04:50:52;4.57;;;2.83;;
10126;SDS011;13080;42.608;23.362;2024-02-16T04:53:18;3.15;;;2.85;;
10126;SDS011;13080;42.608;23.362;2024-02-16T04:55:46;5.07;;;3.70;;
10126;SDS011;13080;42.608;23.362;2024-02-16T04:58:14;3.40;;;3.08;;
10126;SDS011;13080;42.608;23.362;2024-02-16T05:00:41;3.65;;;3.35;;
10126;SDS011;13080;42.608;23.362;2024-02-16T05:03:08;3.50;;;2.70;;
10126;SDS011;13080;42.608;23.362;2024-02-16T05:05:35;3.72;;;2.38;;
10126;SDS011;13080;42.608;23.362;2024-02-16T05:08:02;5.32;;;2.78;;
10126;SDS011;13080;42.608;23.362;2024-02-16T05:10:29;3.17;;;2.13;;
10126;SDS011;13080;42.608;23.362;2024-02-16T05:12:55;2.90;;;2.30;;
10126;SDS011;13080;42.608;23.362;2024-02-16T05:15:24;3.42;;;2.40;;
10126;SDS011;13080;42.608;23.362;2024-02-16T05:17:52;2.92;;;2.30;;
10126;SDS011;13080;42.608;23.362;2024-02-16T05:20:19;7.88;;;4.20;;
10126;SDS011;13080;42.608;23.362;2024-02-16T05:22:46;2.95;;;2.45;;
10126;SDS011;13080;42.608;23.362;2024-02-16T05:25:14;4.82;;;2.75;;
10126;SDS011;13080;42.608;23.362;2024-02-16T05:27:43;4.20;;;3.17;;
10126;SDS011;13080;42.608;23.362;2024-02-16T05:30:10;5.05;;;2.92;;
10126;SDS011;13080;42.608;23.362;2024-02-16T05:32:42;4.85;;;2.63;;
10126;SDS011;13080;42.608;23.362;2024-02-16T05:35:09;3.65;;;2.55;;
10126;SDS011;13080;42.608;23.362;2024-02-16T05:37:39;4.30;;;3.03;;
10126;SDS011;13080;42.608;23.362;2024-02-16T05:40:09;4.25;;;2.83;;
10126;SDS011;13080;42.608;23.362;2024-02-16T05:42:47;2.95;;;2.55;;
10126;SDS011;13080;42.608;23.362;2024-02-16T05:45:14;3.17;;;2.83;;
10126;SDS011;13080;42.608;23.362;2024-02-16T05:47:45;3.75;;;2.30;;
10126;SDS011;13080;42.608;23.362;2024-02-16T05:50:12;3.63;;;2.70;;
10126;SDS011;13080;42.608;23.362;2024-02-16T05:52:40;2.97;;;1.90;;
10126;SDS011;13080;42.608;23.362;2024-02-16T05:55:07;3.40;;;2.70;;
10126;SDS011;13080;42.608;23.362;2024-02-16T05:57:35;3.22;;;2.65;;
10126;SDS011;13080;42.608;23.362;2024-02-16T06:00:02;6.35;;;4.38;;
10126;SDS011;13080;42.608;23.362;2024-02-16T06:02:32;10.65;;;7.28;;
10126;SDS011;13080;42.608;23.362;2024-02-16T06:05:01;9.07;;;6.75;;
10126;SDS011;13080;42.608;23.362;2024-02-16T06:07:29;18.02;;;7.60;;
10126;SDS011;13080;42.608;23.362;2024-02-16T06:09:56;9.23;;;4.65;;
10126;SDS011;13080;42.608;23.362;2024-02-16T06:12:24;11.75;;;5.82;;
10126;SDS011;13080;42.608;23.362;2024-02-16T06:14:51;7.07;;;4.07;;
10126;SDS011;13080;42.608;23.362;2024-02-16T06:17:19;7.32;;;4.30;;
10126;SDS011;13080;42.608;23.362;2024-02-16T06:19:46;5.82;;;4.32;;
10126;SDS011;13080;42.608;23.362;2024-02-16T06:22:15;6.75;;;3.80;;
10126;SDS011;13080;42.608;23.362;2024-02-16T06:24:42;8.23;;;4.65;;
10126;SDS011;13080;42.608;23.362;2024-02-16T06:27:10;8.00;;;4.55;;
10126;SDS011;13080;42.608;23.362;2024-02-16T06:29:37;7.55;;;4.38;;
10126;SDS011;13080;42.608;23.362;2024-02-16T06:32:04;9.63;;;4.82;;
10126;SDS011;13080;42.608;23.362;2024-02-16T06:34:31;6.82;;;3.88;;
10126;SDS011;13080;42.608;23.362;2024-02-16T06:36:58;8.27;;;4.50;;
10126;SDS011;13080;42.608;23.362;2024-02-16T06:39:26;6.45;;;4.78;;
10126;SDS011;13080;42.608;23.362;2024-02-16T06:41:55;11.02;;;4.68;;
10126;SDS011;13080;42.608;23.362;2024-02-16T06:44:22;9.27;;;4.70;;
10126;SDS011;13080;42.608;23.362;2024-02-16T06:46:49;7.78;;;4.72;;
10126;SDS011;13080;42.608;23.362;2024-02-16T06:49:15;4.30;;;3.08;;
10126;SDS011;13080;42.608;23.362;2024-02-16T06:51:42;6.72;;;4.15;;
10126;SDS011;13080;42.608;23.362;2024-02-16T06:54:10;9.48;;;4.45;;
10126;SDS011;13080;42.608;23.362;2024-02-16T06:56:38;8.20;;;5.57;;
10126;SDS011;13080;42.608;23.362;2024-02-16T06:59:05;8.15;;;5.75;;
10126;SDS011;13080;42.608;23.362;2024-02-16T07:01:32;10.73;;;5.93;;
10126;SDS011;13080;42.608;23.362;2024-02-16T07:03:59;10.77;;;4.57;;
10126;SDS011;13080;42.608;23.362;2024-02-16T07:06:27;8.10;;;4.25;;
10126;SDS011;13080;42.608;23.362;2024-02-16T07:08:53;9.43;;;5.15;;
10126;SDS011;13080;42.608;23.362;2024-02-16T07:11:20;12.57;;;5.93;;
10126;SDS011;13080;42.608;23.362;2024-02-16T07:13:49;15.90;;;6.15;;
10126;SDS011;13080;42.608;23.362;2024-02-16T07:16:15;14.85;;;8.05;;
10126;SDS011;13080;42.608;23.362;2024-02-16T07:18:43;13.95;;;7.60;;
10126;SDS011;13080;42.608;23.362;2024-02-16T07:21:10;18.52;;;7.65;;
10126;SDS011;13080;42.608;23.362;2024-02-16T07:23:37;15.38;;;7.15;;
10126;SDS011;13080;42.608;23.362;2024-02-16T07:26:04;13.35;;;7.15;;
10126;SDS011;13080;42.608;23.362;2024-02-16T07:28:32;11.68;;;6.55;;
10126;SDS011;13080;42.608;23.362;2024-02-16T07:31:01;13.25;;;7.22;;
10126;SDS011;13080;42.608;23.362;2024-02-16T07:33:29;17.42;;;7.47;;
10126;SDS011;13080;42.608;23.362;2024-02-16T07:35:56;21.25;;;9.23;;
10126;SDS011;13080;42.608;23.362;2024-02-16T07:38:23;12.57;;;6.78;;
10126;SDS011;13080;42.608;23.362;2024-02-16T07:40:49;15.10;;;7.57;;
10126;SDS011;13080;42.608;23.362;2024-02-16T07:43:16;18.20;;;7.97;;
10126;SDS011;13080;42.608;23.362;2024-02-16T07:45:43;12.93;;;7.18;;
10126;SDS011;13080;42.608;23.362;2024-02-16T07:48:12;16.20;;;7.63;;
10126;SDS011;13080;42.608;23.362;2024-02-16T07:50:39;13.27;;;7.47;;
10126;SDS011;13080;42.608;23.362;2024-02-16T07:53:06;18.35;;;8.68;;
10126;SDS011;13080;42.608;23.362;2024-02-16T07:55:35;15.57;;;7.28;;
10126;SDS011;13080;42.608;23.362;2024-02-16T07:58:01;11.60;;;7.10;;
10126;SDS011;13080;42.608;23.362;2024-02-16T08:00:29;16.65;;;7.07;;
10126;SDS011;13080;42.608;23.362;2024-02-16T08:02:55;13.38;;;7.30;;
10126;SDS011;13080;42.608;23.362;2024-02-16T08:05:24;18.20;;;9.05;;
10126;SDS011;13080;42.608;23.362;2024-02-16T08:07:51;14.40;;;8.02;;
10126;SDS011;13080;42.608;23.362;2024-02-16T08:10:19;20.08;;;8.63;;
10126;SDS011;13080;42.608;23.362;2024-02-16T08:12:47;15.10;;;7.45;;
10126;SDS011;13080;42.608;23.362;2024-02-16T08:15:14;19.70;;;7.43;;
10126;SDS011;13080;42.608;23.362;2024-02-16T08:17:47;15.20;;;7.88;;
10126;SDS011;13080;42.608;23.362;2024-02-16T08:20:14;12.15;;;7.85;;
10126;SDS011;13080;42.608;23.362;2024-02-16T08:22:43;14.07;;;7.05;;
10126;SDS011;13080;42.608;23.362;2024-02-16T08:25:09;12.85;;;7.53;;
10126;SDS011;13080;42.608;23.362;2024-02-16T08:27:36;10.85;;;5.80;;
10126;SDS011;13080;42.608;23.362;2024-02-16T08:30:04;11.02;;;6.55;;
10126;SDS011;13080;42.608;23.362;2024-02-16T08:32:34;13.50;;;6.93;;
10126;SDS011;13080;42.608;23.362;2024-02-16T08:35:01;13.10;;;6.63;;
10126;SDS011;13080;42.608;23.362;2024-02-16T08:37:28;8.05;;;4.80;;
10126;SDS011;13080;42.608;23.362;2024-02-16T08:39:56;12.50;;;6.28;;
10126;SDS011;13080;42.608;23.362;2024-02-16T08:42:23;10.20;;;6.00;;
10126;SDS011;13080;42.608;23.362;2024-02-16T08:44:50;11.10;;;5.38;;
10126;SDS011;13080;42.608;23.362;2024-02-16T08:47:17;7.38;;;4.35;;
10126;SDS011;13080;42.608;23.362;2024-02-16T08:49:44;9.15;;;5.47;;
10126;SDS011;13080;42.608;23.362;2024-02-16T08:52:11;14.93;;;6.30;;
10126;SDS011;13080;42.608;23.362;2024-02-16T08:54:38;5.35;;;3.78;;
10126;SDS011;13080;42.608;23.362;2024-02-16T08:57:06;10.02;;;4.53;;
10126;SDS011;13080;42.608;23.362;2024-02-16T08:59:33;8.88;;;4.53;;
10126;SDS011;13080;42.608;23.362;2024-02-16T09:02:00;7.95;;;4.90;;
10126;SDS011;13080;42.608;23.362;2024-02-16T09:04:27;7.47;;;4.70;;
10126;SDS011;13080;42.608;23.362;2024-02-16T09:06:54;6.75;;;3.70;;
10126;SDS011;13080;42.608;23.362;2024-02-16T09:09:21;7.28;;;3.90;;
10126;SDS011;13080;42.608;23.362;2024-02-16T09:11:48;6.22;;;4.90;;
10126;SDS011;13080;42.608;23.362;2024-02-16T09:14:16;7.07;;;4.25;;
10126;SDS011;13080;42.608;23.362;2024-02-16T09:16:43;11.18;;;6.68;;
10126;SDS011;13080;42.608;23.362;2024-02-16T09:19:10;10.38;;;5.82;;
10126;SDS011;13080;42.608;23.362;2024-02-16T09:21:37;7.82;;;3.80;;
10126;SDS011;13080;42.608;23.362;2024-02-16T09:24:04;33.75;;;21.45;;
10126;SDS011;13080;42.608;23.362;2024-02-16T09:26:35;9.32;;;5.57;;
10126;SDS011;13080;42.608;23.362;2024-02-16T09:29:02;8.00;;;4.05;;
10126;SDS011;13080;42.608;23.362;2024-02-16T09:31:31;8.82;;;5.75;;
10126;SDS011;13080;42.608;23.362;2024-02-16T09:33:58;9.00;;;4.57;;
10126;SDS011;13080;42.608;23.362;2024-02-16T09:36:25;11.43;;;6.15;;
10126;SDS011;13080;42.608;23.362;2024-02-16T09:38:52;9.23;;;4.65;;
10126;SDS011;13080;42.608;23.362;2024-02-16T09:41:19;9.52;;;4.85;;
10126;SDS011;13080;42.608;23.362;2024-02-16T09:43:45;10.02;;;5.07;;
10126;SDS011;13080;42.608;23.362;2024-02-16T09:46:12;6.28;;;4.30;;
10126;SDS011;13080;42.608;23.362;2024-02-16T09:48:43;12.60;;;6.05;;
10126;SDS011;13080;42.608;23.362;2024-02-16T09:51:17;6.63;;;4.28;;
10126;SDS011;13080;42.608;23.362;2024-02-16T09:53:45;5.22;;;3.65;;
10126;SDS011;13080;42.608;23.362;2024-02-16T09:56:19;7.60;;;4.07;;
10126;SDS011;13080;42.608;23.362;2024-02-16T09:58:46;6.00;;;4.13;;
10126;SDS011;13080;42.608;23.362;2024-02-16T10:01:17;7.15;;;5.10;;
10126;SDS011;13080;42.608;23.362;2024-02-16T10:03:47;6.88;;;4.05;;
10126;SDS011;13080;42.608;23.362;2024-02-16T10:06:15;6.07;;;4.35;;
10126;SDS011;13080;42.608;23.362;2024-02-16T10:08:49;8.45;;;5.00;;
10126;SDS011;13080;42.608;23.362;2024-02-16T10:11:17;9.98;;;5.25;;
10126;SDS011;13080;42.608;23.362;2024-02-16T10:13:55;7.13;;;4.50;;
10126;SDS011;13080;42.608;23.362;2024-02-16T10:16:23;6.72;;;4.35;;
10126;SDS011;13080;42.608;23.362;2024-02-16T10:18:52;6.60;;;4.32;;
10126;SDS011;13080;42.608;23.362;2024-02-16T10:21:24;10.27;;;4.78;;
10126;SDS011;13080;42.608;23.362;2024-02-16T10:23:59;9.25;;;4.38;;
10126;SDS011;13080;42.608;23.362;2024-02-16T10:26:27;8.50;;;4.63;;
10126;SDS011;13080;42.608;23.362;2024-02-16T10:28:54;7.90;;;4.35;;
10126;SDS011;13080;42.608;23.362;2024-02-16T10:31:23;7.10;;;4.57;;
10126;SDS011;13080;42.608;23.362;2024-02-16T10:33:57;10.80;;;5.10;;
10126;SDS011;13080;42.608;23.362;2024-02-16T10:36:25;6.40;;;4.28;;
10126;SDS011;13080;42.608;23.362;2024-02-16T10:38:53;9.73;;;4.88;;
10126;SDS011;13080;42.608;23.362;2024-02-16T10:41:22;9.18;;;5.55;;
10126;SDS011;13080;42.608;23.362;2024-02-16T10:43:55;9.13;;;4.63;;
10126;SDS011;13080;42.608;23.362;2024-02-16T10:46:22;9.10;;;5.15;;
10126;SDS011;13080;42.608;23.362;2024-02-16T10:48:50;8.18;;;5.55;;
10126;SDS011;13080;42.608;23.362;2024-02-16T10:51:20;11.20;;;5.90;;
10126;SDS011;13080;42.608;23.362;2024-02-16T10:53:51;12.50;;;6.15;;
10126;SDS011;13080;42.608;23.362;2024-02-16T10:56:26;8.75;;;5.18;;
10126;SDS011;13080;42.608;23.362;2024-02-16T10:58:54;6.50;;;4.80;;
10126;SDS011;13080;42.608;23.362;2024-02-16T11:01:21;9.40;;;5.18;;
10126;SDS011;13080;42.608;23.362;2024-02-16T11:03:49;9.88;;;4.80;;
10126;SDS011;13080;42.608;23.362;2024-02-16T11:06:27;8.25;;;4.85;;
10126;SDS011;13080;42.608;23.362;2024-02-16T11:08:54;7.97;;;5.43;;
10126;SDS011;13080;42.608;23.362;2024-02-16T11:11:32;9.45;;;5.00;;
10126;SDS011;13080;42.608;23.362;2024-02-16T11:14:01;8.20;;;5.13;;
10126;SDS011;13080;42.608;23.362;2024-02-16T11:16:28;5.85;;;4.53;;
10126;SDS011;13080;42.608;23.362;2024-02-16T11:18:56;6.88;;;4.68;;
10126;SDS011;13080;42.608;23.362;2024-02-16T11:21:23;9.60;;;5.18;;
10126;SDS011;13080;42.608;23.362;2024-02-16T11:23:52;6.57;;;4.47;;
10126;SDS011;13080;42.608;23.362;2024-02-16T11:26:19;7.05;;;4.47;;
10126;SDS011;13080;42.608;23.362;2024-02-16T11:28:45;7.43;;;4.35;;
10126;SDS011;13080;42.608;23.362;2024-02-16T11:31:12;6.72;;;4.45;;
10126;SDS011;13080;42.608;23.362;2024-02-16T11:33:43;10.02;;;4.65;;
10126;SDS011;13080;42.608;23.362;2024-02-16T11:36:10;7.10;;;4.20;;
10126;SDS011;13080;42.608;23.362;2024-02-16T11:38:37;6.15;;;3.67;;
10126;SDS011;13080;42.608;23.362;2024-02-16T11:41:06;4.32;;;2.90;;
10126;SDS011;13080;42.608;23.362;2024-02-16T11:43:34;5.32;;;3.35;;
10126;SDS011;13080;42.608;23.362;2024-02-16T11:46:10;5.10;;;3.15;;
10126;SDS011;13080;42.608;23.362;2024-02-16T11:48:37;4.97;;;3.50;;
10126;SDS011;13080;42.608;23.362;2024-02-16T11:51:04;5.03;;;3.35;;
10126;SDS011;13080;42.608;23.362;2024-02-16T11:53:31;5.85;;;3.53;;
10126;SDS011;13080;42.608;23.362;2024-02-16T11:55:58;6.88;;;3.78;;
10126;SDS011;13080;42.608;23.362;2024-02-16T11:58:27;5.43;;;3.47;;
10126;SDS011;13080;42.608;23.362;2024-02-16T12:00:54;6.75;;;4.10;;
10126;SDS011;13080;42.608;23.362;2024-02-16T12:03:24;6.97;;;4.18;;
10126;SDS011;13080;42.608;23.362;2024-02-16T12:05:53;8.15;;;4.68;;
10126;SDS011;13080;42.608;23.362;2024-02-16T12:08:21;6.90;;;4.05;;
10126;SDS011;13080;42.608;23.362;2024-02-16T12:10:49;5.75;;;4.82;;
10126;SDS011;13080;42.608;23.362;2024-02-16T12:13:17;7.35;;;4.75;;
10126;SDS011;13080;42.608;23.362;2024-02-16T12:15:46;15.18;;;12.52;;
10126;SDS011;13080;42.608;23.362;2024-02-16T12:18:20;6.80;;;4.10;;
10126;SDS011;13080;42.608;23.362;2024-02-16T12:20:58;6.13;;;4.35;;
10126;SDS011;13080;42.608;23.362;2024-02-16T12:23:25;7.65;;;4.88;;
10126;SDS011;13080;42.608;23.362;2024-02-16T12:25:53;8.15;;;4.80;;
10126;SDS011;13080;42.608;23.362;2024-02-16T12:28:23;7.88;;;4.82;;
10126;SDS011;13080;42.608;23.362;2024-02-16T12:30:54;7.93;;;3.75;;
10126;SDS011;13080;42.608;23.362;2024-02-16T12:33:22;6.90;;;4.68;;
10126;SDS011;13080;42.608;23.362;2024-02-16T12:35:49;6.28;;;4.22;;
10126;SDS011;13080;42.608;23.362;2024-02-16T12:38:16;5.10;;;3.70;;
10126;SDS011;13080;42.608;23.362;2024-02-16T12:40:44;7.38;;;3.92;;
10126;SDS011;13080;42.608;23.362;2024-02-16T12:43:11;8.05;;;4.95;;
10126;SDS011;13080;42.608;23.362;2024-02-16T12:45:38;8.68;;;4.70;;
10126;SDS011;13080;42.608;23.362;2024-02-16T12:48:07;9.82;;;4.80;;
10126;SDS011;13080;42.608;23.362;2024-02-16T12:50:35;6.93;;;4.60;;
10126;SDS011;13080;42.608;23.362;2024-02-16T12:53:04;7.72;;;4.47;;
10126;SDS011;13080;42.608;23.362;2024-02-16T12:55:31;8.38;;;4.50;;
10126;SDS011;13080;42.608;23.362;2024-02-16T12:57:58;8.25;;;3.85;;
10126;SDS011;13080;42.608;23.362;2024-02-16T13:00:25;7.13;;;4.82;;
10126;SDS011;13080;42.608;23.362;2024-02-16T13:02:52;7.78;;;4.53;;
10126;SDS011;13080;42.608;23.362;2024-02-16T13:05:20;8.05;;;6.30;;
10126;SDS011;13080;42.608;23.362;2024-02-16T13:07:47;9.10;;;4.68;;
10126;SDS011;13080;42.608;23.362;2024-02-16T13:10:14;7.00;;;4.78;;
10126;SDS011;13080;42.608;23.362;2024-02-16T13:12:41;14.63;;;9.10;;
10126;SDS011;13080;42.608;23.362;2024-02-16T13:15:08;16.17;;;10.32;;
10126;SDS011;13080;42.608;23.362;2024-02-16T13:17:35;7.30;;;4.47;;
10126;SDS011;13080;42.608;23.362;2024-02-16T13:20:02;7.72;;;4.70;;
10126;SDS011;13080;42.608;23.362;2024-02-16T13:22:38;10.55;;;5.03;;
10126;SDS011;13080;42.608;23.362;2024-02-16T13:25:05;8.18;;;5.10;;
10126;SDS011;13080;42.608;23.362;2024-02-16T13:27:34;7.72;;;5.05;;
10126;SDS011;13080;42.608;23.362;2024-02-16T13:30:01;7.32;;;4.90;;
10126;SDS011;13080;42.608;23.362;2024-02-16T13:32:28;10.20;;;5.63;;
10126;SDS011;13080;42.608;23.362;2024-02-16T13:34:56;9.57;;;6.97;;
10126;SDS011;13080;42.608;23.362;2024-02-16T13:37:22;9.43;;;5.43;;
10126;SDS011;13080;42.608;23.362;2024-02-16T13:39:51;7.40;;;4.57;;
10126;SDS011;13080;42.608;23.362;2024-02-16T13:42:18;7.80;;;5.45;;
10126;SDS011;13080;42.608;23.362;2024-02-16T13:44:45;8.60;;;4.93;;
10126;SDS011;13080;42.608;23.362;2024-02-16T13:47:12;9.30;;;5.32;;
10126;SDS011;13080;42.608;23.362;2024-02-16T13:49:39;7.80;;;4.55;;
10126;SDS011;13080;42.608;23.362;2024-02-16T13:52:06;8.60;;;5.25;;
10126;SDS011;13080;42.608;23.362;2024-02-16T13:54:33;7.80;;;4.93;;
10126;SDS011;13080;42.608;23.362;2024-02-16T13:57:02;9.05;;;5.00;;
10126;SDS011;13080;42.608;23.362;2024-02-16T13:59:29;6.80;;;4.82;;
10126;SDS011;13080;42.608;23.362;2024-02-16T14:01:56;7.85;;;5.30;;
10126;SDS011;13080;42.608;23.362;2024-02-16T14:04:24;8.23;;;4.93;;
10126;SDS011;13080;42.608;23.362;2024-02-16T14:06:51;8.88;;;5.53;;
10126;SDS011;13080;42.608;23.362;2024-02-16T14:09:19;8.80;;;5.75;;
10126;SDS011;13080;42.608;23.362;2024-02-16T14:11:46;7.70;;;5.22;;
10126;SDS011;13080;42.608;23.362;2024-02-16T14:14:15;8.20;;;5.05;;
10126;SDS011;13080;42.608;23.362;2024-02-16T14:16:41;11.50;;;4.82;;
10126;SDS011;13080;42.608;23.362;2024-02-16T14:19:09;8.32;;;4.82;;
10126;SDS011;13080;42.608;23.362;2024-02-16T14:21:36;9.90;;;5.32;;
10126;SDS011;13080;42.608;23.362;2024-02-16T14:24:03;10.55;;;5.35;;
10126;SDS011;13080;42.608;23.362;2024-02-16T14:26:30;9.50;;;5.70;;
10126;SDS011;13080;42.608;23.362;2024-02-16T14:28:57;12.52;;;6.10;;
10126;SDS011;13080;42.608;23.362;2024-02-16T14:31:25;7.03;;;4.75;;
10126;SDS011;13080;42.608;23.362;2024-02-16T14:33:52;8.30;;;5.05;;